createdAt,value
2019-04-11T03:01:43.907Z,21.55
2019-04-11T03:04:14.840Z,21.02
2019-04-11T03:06:45.673Z,17.00
2019-04-11T03:09:15.490Z,24.23
2019-04-11T03:11:47.221Z,21.45
2019-04-11T03:14:19.058Z,18.95
2019-04-11T03:16:57.568Z,20.17
2019-04-11T03:19:36.403Z,20.45
2019-04-11T03:21:52.427Z,21.48
2019-04-11T03:24:24.333Z,20.02
2019-04-11T03:26:54.967Z,20.82
2019-04-11T03:29:26.704Z,23.70
2019-04-11T03:32:37.084Z,20.25
2019-04-11T03:37:24.280Z,24.85
2019-04-11T03:39:53.176Z,20.55
2019-04-11T03:42:18.680Z,22.35
2019-04-11T03:44:40.212Z,21.42
2019-04-11T03:47:16.574Z,22.30
2019-04-11T03:49:44.963Z,24.95
2019-04-11T03:52:10.106Z,27.10
2019-04-11T03:54:41.004Z,20.00
2019-04-11T03:57:10.383Z,22.10
2019-04-11T03:59:40.749Z,26.37
2019-04-11T04:02:12.560Z,21.60
2019-04-11T04:04:43.426Z,21.30
2019-04-11T04:07:14.929Z,25.65
2019-04-11T04:09:45.944Z,27.07
2019-04-11T04:12:16.223Z,29.95
2019-04-11T04:14:51.563Z,22.85
2019-04-11T04:17:39.289Z,21.55
2019-04-11T04:20:26.911Z,23.05
2019-04-11T04:23:01.047Z,22.87
2019-04-11T04:25:32.491Z,23.47
2019-04-11T04:28:03.069Z,23.07
2019-04-11T04:30:33.645Z,19.27
2019-04-11T04:33:04.347Z,20.15
2019-04-11T04:35:36.179Z,19.95
2019-04-11T04:38:07.308Z,21.00
2019-04-11T04:40:52.038Z,18.37
2019-04-11T04:43:10.367Z,20.77
2019-04-11T04:45:58.190Z,20.92
2019-04-11T04:48:15.538Z,22.98
2019-04-11T04:50:42.553Z,21.50
2019-04-11T04:53:13.588Z,20.77
2019-04-11T04:55:45.555Z,25.48
2019-04-11T04:58:15.792Z,24.57
2019-04-11T05:00:45.680Z,20.80
2019-04-11T05:03:15.901Z,20.55
2019-04-11T05:05:46.547Z,18.35
2019-04-11T05:08:16.566Z,22.00
2019-04-11T05:10:47.106Z,19.30
2019-04-11T05:13:17.189Z,22.10
2019-04-11T05:15:46.643Z,17.15
2019-04-11T05:18:18.013Z,21.50
2019-04-11T05:20:46.891Z,17.07
2019-04-11T05:23:16.974Z,20.37
2019-04-11T05:25:46.590Z,17.45
2019-04-11T05:28:16.124Z,17.90
2019-04-11T05:30:45.427Z,19.95
2019-04-11T05:33:14.987Z,20.82
2019-04-11T05:35:44.258Z,18.20
2019-04-11T05:38:14.683Z,17.70
2019-04-11T05:40:44.426Z,15.55
2019-04-11T05:43:13.933Z,18.37
2019-04-11T05:45:43.202Z,19.62
2019-04-11T05:48:31.959Z,15.85
2019-04-11T05:51:01.404Z,16.62
2019-04-11T05:53:33.018Z,19.27
2019-04-11T05:56:07.079Z,19.80
2019-04-11T05:58:42.138Z,17.77
2019-04-11T06:01:18.005Z,19.15
2019-04-11T06:03:49.228Z,17.62
2019-04-11T06:06:36.784Z,19.25
2019-04-11T06:09:10.442Z,15.53
2019-04-11T06:11:55.030Z,18.37
2019-04-11T06:14:28.019Z,18.23
2019-04-11T06:16:59.211Z,16.67
2019-04-11T06:19:46.322Z,15.95
2019-04-11T06:22:15.592Z,17.40
2019-04-11T06:25:04.100Z,16.15
2019-04-11T06:27:40.710Z,18.75
2019-04-11T06:32:45.755Z,15.68
2019-04-11T06:35:16.879Z,18.07
2019-04-11T06:38:00.730Z,15.60
2019-04-11T06:40:37.722Z,17.40
2019-04-11T06:43:25.749Z,14.03
2019-04-11T06:46:00.722Z,15.30
2019-04-11T06:48:48.310Z,15.43
2019-04-11T06:51:30.942Z,20.17
2019-04-11T06:54:18.968Z,17.60
2019-04-11T06:56:51.039Z,16.82
2019-04-11T06:59:23.921Z,18.05
2019-04-11T07:01:55.042Z,16.02
2019-04-11T07:04:27.277Z,19.00
2019-04-11T07:06:58.393Z,16.95
2019-04-11T07:09:29.294Z,17.92
2019-04-11T07:12:01.299Z,14.58
2019-04-11T07:14:47.565Z,17.27
2019-04-11T07:17:36.905Z,15.95
2019-04-11T07:20:14.295Z,14.78
2019-04-11T07:23:01.588Z,15.75
2019-04-11T07:25:47.727Z,14.83
2019-04-11T07:28:35.692Z,15.40
2019-04-11T07:31:10.532Z,12.63
2019-04-11T07:33:54.519Z,11.57
2019-04-11T07:36:41.710Z,12.15
2019-04-11T07:39:12.970Z,12.80
2019-04-11T07:41:45.689Z,13.30
2019-04-11T07:44:22.217Z,10.93
2019-04-11T07:46:53.693Z,13.00
2019-04-11T07:49:24.633Z,14.65
2019-04-11T07:51:55.593Z,12.15
2019-04-11T07:54:25.935Z,11.53
2019-04-11T07:56:58.388Z,11.18
2019-04-11T07:59:29.725Z,10.10
2019-04-11T08:02:04.313Z,9.50
2019-04-11T08:04:41.208Z,14.07
2019-04-11T08:07:28.271Z,11.60
2019-04-11T08:10:05.897Z,10.72
2019-04-11T08:12:35.687Z,8.58
2019-04-11T08:15:24.391Z,10.13
2019-04-11T08:17:54.319Z,16.82
2019-04-11T08:20:41.567Z,17.98
2019-04-11T08:23:11.696Z,22.70
2019-04-11T08:25:42.627Z,11.25
2019-04-11T08:28:13.869Z,11.65
2019-04-11T08:30:44.665Z,10.95
2019-04-11T08:33:16.673Z,11.80
2019-04-11T08:35:55.186Z,9.35
2019-04-11T08:38:26.691Z,10.43
2019-04-11T08:41:14.218Z,10.82
2019-04-11T08:43:43.472Z,9.18
2019-04-11T08:46:18.355Z,9.13
2019-04-11T08:48:49.494Z,8.20
2019-04-11T08:51:20.410Z,8.40
2019-04-11T08:54:07.060Z,8.08
2019-04-11T08:56:39.057Z,11.18
2019-04-11T08:59:13.442Z,11.08
2019-04-11T09:01:42.794Z,8.18
2019-04-11T09:04:23.888Z,9.85
2019-04-11T09:06:54.755Z,8.18
2019-04-11T09:09:33.515Z,7.53
2019-04-11T09:12:04.827Z,7.33
2019-04-11T09:14:52.633Z,7.80
2019-04-11T09:17:23.915Z,8.33
2019-04-11T09:19:55.116Z,10.55
2019-04-11T09:22:29.136Z,9.73
2019-04-11T09:25:00.993Z,8.18
2019-04-11T09:27:48.997Z,7.12
2019-04-11T09:30:32.701Z,9.33
2019-04-11T09:33:06.895Z,9.23
2019-04-11T09:35:37.811Z,9.53
2019-04-11T09:38:08.718Z,9.35
2019-04-11T09:40:57.131Z,8.08
2019-04-11T09:43:31.880Z,10.25
2019-04-11T09:46:15.042Z,10.93
2019-04-11T09:48:46.318Z,9.25
2019-04-11T09:51:23.478Z,9.48
2019-04-11T09:54:03.599Z,8.25
2019-04-11T09:56:51.772Z,8.50
2019-04-11T09:59:23.023Z,9.35
2019-04-11T10:02:10.428Z,9.03
2019-04-11T10:04:41.705Z,9.75
2019-04-11T10:07:13.122Z,8.95
2019-04-11T10:09:54.174Z,8.70
2019-04-11T10:12:40.947Z,7.60
2019-04-11T10:15:11.542Z,10.32
2019-04-11T10:17:59.061Z,10.48
2019-04-11T10:20:28.798Z,9.88
2019-04-11T10:23:01.477Z,6.92
2019-04-11T10:25:32.379Z,10.50
2019-04-11T10:28:05.978Z,7.97
2019-04-11T10:30:53.735Z,10.38
2019-04-11T10:33:30.972Z,8.58
2019-04-11T10:36:03.050Z,8.58
2019-04-11T10:38:33.769Z,8.23
2019-04-11T10:41:20.889Z,9.48
2019-04-11T10:43:50.174Z,8.40
2019-04-11T10:46:25.094Z,8.48
2019-04-11T10:49:03.319Z,8.33
2019-04-11T10:51:40.836Z,6.65
2019-04-11T10:54:13.537Z,5.90
2019-04-11T10:57:03.473Z,6.65
2019-04-11T10:59:34.801Z,7.22
2019-04-11T11:02:06.651Z,6.25
2019-04-11T11:04:38.778Z,5.85
2019-04-11T11:07:11.367Z,8.18
2019-04-11T11:09:48.704Z,8.40
2019-04-11T11:12:37.694Z,8.23
2019-04-11T11:15:12.078Z,10.60
2019-04-11T11:18:12.644Z,8.65
2019-04-11T11:20:38.544Z,10.50
2019-04-11T11:23:20.794Z,9.73
2019-04-11T11:25:54.646Z,8.58
2019-04-11T11:28:25.943Z,8.35
2019-04-11T11:31:08.888Z,9.90
2019-04-11T11:33:38.740Z,7.85
2019-04-11T11:36:13.095Z,6.72
2019-04-11T11:38:44.058Z,9.45
2019-04-11T11:43:59.278Z,8.58
2019-04-11T11:46:42.664Z,7.90
2019-04-11T11:49:12.491Z,7.72
2019-04-11T11:52:00.457Z,10.63
2019-04-11T11:54:32.578Z,8.15
2019-04-11T11:57:04.494Z,8.53
2019-04-11T11:59:36.465Z,10.00
2019-04-11T12:02:08.485Z,9.95
2019-04-11T12:04:40.512Z,9.65
2019-04-11T12:07:12.742Z,8.60
2019-04-11T12:10:00.699Z,9.70
2019-04-11T12:12:35.616Z,9.90
2019-04-11T12:15:22.528Z,10.23
2019-04-11T12:18:11.214Z,8.45
2019-04-11T12:21:01.277Z,10.40
2019-04-11T12:23:46.548Z,10.13
2019-04-11T12:26:10.962Z,11.00
2019-04-11T12:28:54.203Z,10.28
2019-04-11T12:31:26.001Z,9.55
2019-04-11T12:34:14.450Z,9.80
2019-04-11T12:36:50.424Z,9.53
2019-04-11T12:39:28.857Z,12.03
2019-04-11T12:41:59.872Z,9.70
2019-04-11T12:44:30.782Z,10.90
2019-04-11T12:47:01.690Z,8.93
2019-04-11T12:49:52.721Z,13.53
2019-04-11T12:52:31.858Z,8.95
2019-04-11T12:55:03.106Z,11.12
2019-04-11T12:57:52.074Z,11.30
2019-04-11T13:00:39.275Z,10.08
2019-04-11T13:03:10.180Z,9.95
2019-04-11T13:05:49.606Z,12.23
2019-04-11T13:08:35.923Z,11.28
2019-04-11T13:11:05.455Z,9.60
2019-04-11T13:13:39.263Z,9.00
2019-04-11T13:16:12.369Z,9.70
2019-04-11T13:18:42.766Z,9.33
2019-04-11T13:21:13.938Z,8.35
2019-04-11T13:23:56.842Z,10.78
2019-04-11T13:26:43.960Z,9.18
2019-04-11T13:29:29.916Z,8.10
2019-04-11T13:32:06.770Z,8.75
2019-04-11T13:34:37.703Z,9.65
2019-04-11T13:37:25.327Z,12.60
2019-04-11T13:39:56.321Z,9.98
2019-04-11T13:42:27.410Z,9.50
2019-04-11T13:44:56.684Z,9.33
2019-04-11T13:47:45.802Z,8.35
2019-04-11T13:50:17.061Z,10.03
2019-04-11T13:52:50.994Z,9.38
2019-04-11T13:55:20.902Z,8.53
2019-04-11T13:58:03.847Z,8.30
2019-04-11T14:00:40.558Z,9.00
2019-04-11T14:03:11.478Z,10.58
2019-04-11T14:05:45.079Z,9.68
2019-04-11T14:08:17.894Z,9.20
2019-04-11T14:11:06.431Z,9.15
2019-04-11T14:13:40.362Z,10.80
2019-04-11T14:19:07.201Z,9.03
2019-04-11T14:21:36.602Z,9.30
2019-04-11T14:24:11.679Z,8.73
2019-04-11T14:26:48.871Z,10.15
2019-04-11T14:29:22.695Z,7.58
2019-04-11T14:31:54.517Z,7.95
2019-04-11T14:34:29.390Z,8.23
2019-04-11T14:37:03.532Z,7.80
2019-04-11T14:39:34.439Z,7.83
2019-04-11T14:42:20.844Z,10.45
2019-04-11T14:44:51.866Z,9.15
2019-04-11T14:47:39.326Z,7.80
2019-04-11T14:50:11.161Z,10.58
2019-04-11T14:52:46.712Z,8.55
2019-04-11T14:55:19.075Z,9.03
2019-04-11T14:57:53.582Z,9.00
2019-04-11T15:00:26.205Z,9.33
2019-04-11T15:03:03.022Z,7.95
2019-04-11T15:05:49.208Z,7.17
2019-04-11T15:08:22.557Z,7.83
2019-04-11T15:11:11.838Z,8.55
2019-04-11T15:13:42.779Z,10.43
2019-04-11T15:16:30.090Z,8.93
2019-04-11T15:19:00.434Z,10.35
2019-04-11T15:21:37.635Z,8.73
2019-04-11T15:24:08.078Z,8.33
2019-04-11T15:26:55.619Z,7.03
2019-04-11T15:29:26.523Z,8.30
2019-04-11T15:32:02.105Z,8.03
2019-04-11T15:34:40.320Z,8.18
2019-04-11T15:37:28.243Z,9.60
2019-04-11T15:39:59.546Z,11.70
2019-04-11T15:42:45.227Z,7.47
2019-04-11T15:45:18.847Z,7.70
2019-04-11T15:47:52.493Z,8.95
2019-04-11T15:50:39.653Z,7.30
2019-04-11T15:53:08.910Z,7.60
2019-04-11T15:55:45.984Z,10.32
2019-04-11T15:58:15.512Z,9.10
2019-04-11T16:00:55.174Z,8.23
2019-04-11T16:03:24.768Z,9.13
2019-04-11T16:05:55.828Z,8.60
2019-04-11T16:08:32.708Z,8.98
2019-04-11T16:11:12.150Z,8.98
2019-04-11T16:13:42.191Z,7.92
2019-04-11T16:16:12.123Z,9.63
2019-04-11T16:18:47.265Z,10.72
2019-04-11T16:21:21.182Z,11.10
2019-04-11T16:24:07.418Z,8.23
2019-04-11T16:26:41.323Z,8.75
2019-04-11T16:29:24.283Z,11.08
2019-04-11T16:31:56.162Z,9.38
2019-04-11T16:34:30.100Z,8.20
2019-04-11T16:36:59.533Z,8.65
2019-04-11T16:42:10.325Z,10.35
2019-04-11T16:44:54.822Z,7.83
2019-04-11T16:47:23.700Z,10.13
2019-04-11T16:49:57.031Z,8.83
2019-04-11T16:52:26.256Z,9.70
2019-04-11T16:54:55.868Z,10.45
2019-04-11T16:57:25.373Z,7.90
2019-04-11T16:59:54.632Z,9.38
2019-04-11T17:02:24.354Z,10.53
2019-04-11T17:04:55.811Z,8.60
2019-04-11T17:07:33.038Z,9.38
2019-04-11T17:10:03.375Z,8.63
2019-04-11T17:12:32.740Z,9.85
2019-04-11T17:15:02.258Z,8.63
2019-04-11T17:17:32.899Z,8.60
2019-04-11T17:20:05.786Z,7.97
2019-04-11T17:22:34.574Z,8.80
2019-04-11T17:25:04.321Z,7.30
2019-04-11T17:27:33.654Z,11.15
2019-04-11T17:30:03.386Z,8.98
2019-04-11T17:32:32.654Z,7.15
2019-04-11T17:35:02.528Z,11.18
2019-04-11T17:37:33.791Z,7.00
2019-04-11T17:40:07.078Z,7.92
2019-04-11T17:42:37.038Z,7.33
2019-04-11T17:45:06.994Z,7.90
2019-04-11T17:47:36.273Z,8.30
2019-04-11T17:50:07.461Z,8.93
2019-04-11T17:52:37.247Z,8.73
2019-04-11T17:55:07.367Z,9.55
2019-04-11T17:57:36.729Z,10.23
2019-04-11T18:00:09.499Z,10.50
2019-04-11T18:02:41.510Z,7.87
2019-04-11T18:05:10.438Z,9.73
2019-04-11T18:07:41.429Z,8.58
2019-04-11T18:10:11.145Z,11.18
2019-04-11T18:12:40.402Z,8.48
2019-04-11T18:15:10.010Z,7.70
2019-04-11T18:17:39.266Z,8.75
2019-04-11T18:20:09.899Z,10.13
2019-04-11T18:22:39.166Z,10.40
2019-04-11T18:25:08.428Z,9.13
2019-04-11T18:27:37.765Z,10.28
2019-04-11T18:30:12.235Z,10.00
2019-04-11T18:32:41.567Z,8.47
2019-04-11T18:35:11.351Z,8.05
2019-04-11T18:37:40.854Z,9.58
2019-04-11T18:40:11.248Z,8.53
2019-04-11T18:42:40.511Z,10.75
2019-04-11T18:45:10.130Z,8.23
2019-04-11T18:47:39.450Z,8.23
2019-04-11T18:50:09.349Z,8.48
2019-04-11T18:52:38.639Z,7.95
2019-04-11T18:55:08.130Z,10.45
2019-04-11T18:57:37.422Z,8.18
2019-04-11T19:00:10.811Z,10.35
2019-04-11T19:02:40.789Z,10.05
2019-04-11T19:05:10.838Z,11.12
2019-04-11T19:07:43.092Z,7.70
2019-04-11T19:10:14.994Z,9.68
2019-04-11T19:12:46.206Z,8.75
2019-04-11T19:15:16.715Z,7.35
2019-04-11T19:17:47.140Z,9.45
2019-04-11T19:20:18.804Z,9.98
2019-04-11T19:22:47.638Z,7.62
2019-04-11T19:25:16.915Z,10.78
2019-04-11T19:27:50.078Z,8.80
2019-04-11T19:30:17.144Z,7.55
2019-04-11T19:32:46.478Z,8.50
2019-04-11T19:35:15.794Z,7.03
2019-04-11T19:37:46.143Z,8.35
2019-04-11T19:40:16.502Z,11.20
2019-04-11T19:42:49.194Z,9.23
2019-04-11T19:45:19.567Z,11.75
2019-04-11T19:47:52.067Z,6.83
2019-04-11T19:50:21.743Z,7.55
2019-04-11T19:52:51.180Z,7.33
2019-04-11T19:55:28.231Z,8.30
2019-04-11T19:57:57.504Z,11.10
2019-04-11T20:00:27.326Z,8.93
2019-04-11T20:02:56.592Z,10.03
2019-04-11T20:05:25.850Z,7.72
2019-04-11T20:07:55.174Z,8.33
2019-04-11T20:10:24.431Z,7.55
2019-04-11T20:12:55.079Z,7.87
2019-04-11T20:15:24.345Z,8.58
2019-04-11T20:17:53.603Z,8.53
2019-04-11T20:20:22.854Z,8.63
2019-04-11T20:22:58.993Z,8.45
2019-04-11T20:25:23.083Z,8.88
2019-04-11T20:27:52.338Z,9.73
2019-04-11T20:30:22.896Z,9.80
2019-04-11T20:32:52.874Z,8.25
2019-04-11T20:35:28.741Z,9.33
2019-04-11T20:37:54.311Z,8.18
2019-04-11T20:40:23.778Z,8.35
2019-04-11T20:42:54.450Z,7.15
2019-04-11T20:45:28.474Z,9.55
2019-04-11T20:47:59.790Z,7.50
2019-04-11T20:50:27.882Z,7.20
2019-04-11T20:52:59.357Z,8.10
2019-04-11T20:55:28.107Z,7.58
2019-04-11T20:57:57.774Z,7.75
2019-04-11T21:00:27.275Z,9.05
2019-04-11T21:02:58.393Z,9.15
2019-04-11T21:05:30.788Z,9.43
2019-04-11T21:08:02.567Z,7.35
2019-04-11T21:10:29.434Z,8.85
2019-04-11T21:12:58.710Z,7.08
2019-04-11T21:15:28.011Z,6.10
2019-04-11T21:17:57.672Z,7.97
2019-04-11T21:20:26.935Z,8.13
2019-04-11T21:22:56.203Z,8.55
2019-04-11T21:25:26.057Z,9.63
2019-04-11T21:27:59.087Z,6.85
2019-04-11T21:30:30.119Z,7.60
2019-04-11T21:33:01.121Z,6.80
2019-04-11T21:35:31.003Z,7.87
2019-04-11T21:38:00.982Z,9.70
2019-04-11T21:40:30.259Z,6.28
2019-04-11T21:42:59.526Z,6.75
2019-04-11T21:45:29.039Z,6.53
2019-04-11T21:47:58.822Z,10.98
2019-04-11T21:50:28.090Z,8.08
2019-04-11T21:52:57.351Z,8.18
2019-04-11T21:55:26.610Z,6.80
2019-04-11T21:57:55.870Z,6.37
2019-04-11T22:00:32.790Z,10.28
2019-04-11T22:03:06.562Z,8.85
2019-04-11T22:05:35.006Z,8.15
2019-04-11T22:08:05.659Z,6.55
2019-04-11T22:10:35.255Z,6.62
2019-04-11T22:13:04.502Z,8.10
2019-04-11T22:15:33.839Z,10.88
2019-04-11T22:18:04.302Z,6.20
2019-04-11T22:20:33.565Z,9.73
2019-04-11T22:23:02.890Z,6.28
2019-04-11T22:25:32.218Z,7.78
2019-04-11T22:28:01.481Z,10.48
2019-04-11T22:30:31.727Z,8.15
2019-04-11T22:33:03.695Z,7.33
2019-04-11T22:35:33.196Z,7.45
2019-04-11T22:38:02.455Z,7.25
2019-04-11T22:40:32.396Z,6.95
2019-04-11T22:43:01.786Z,8.08
2019-04-11T22:45:31.094Z,9.43
2019-04-11T22:48:00.384Z,6.72
2019-04-11T22:50:29.970Z,7.30
2019-04-11T22:52:59.534Z,7.33
2019-04-11T22:55:29.050Z,12.75
2019-04-11T22:57:58.316Z,10.50
2019-04-11T23:00:27.855Z,9.38
2019-04-11T23:03:01.446Z,8.18
2019-04-11T23:05:30.710Z,9.48
2019-04-11T23:07:59.969Z,9.33
2019-04-11T23:10:29.567Z,9.15
2019-04-11T23:12:58.828Z,8.40
2019-04-11T23:15:28.106Z,8.33
2019-04-11T23:17:57.346Z,7.83
2019-04-11T23:20:26.615Z,9.65
2019-04-11T23:22:55.874Z,8.78
2019-04-11T23:25:25.379Z,7.67
2019-04-11T23:27:54.807Z,8.25
2019-04-11T23:30:24.063Z,7.95
2019-04-11T23:32:53.329Z,9.68
2019-04-11T23:35:22.828Z,10.30
2019-04-11T23:37:53.158Z,8.25
2019-04-11T23:40:22.436Z,10.05
2019-04-11T23:42:51.867Z,8.70
2019-04-11T23:45:22.764Z,7.65
2019-04-11T23:47:54.157Z,7.90
2019-04-11T23:50:25.359Z,8.53
2019-04-11T23:52:57.841Z,11.20
2019-04-11T23:55:29.856Z,10.32
2019-04-11T23:58:01.137Z,9.50
